Terminal Aerodrome Forecast
Issued by NWS

Home | Current Version | Previous Version | Text Only | Print | Product List | Glossary On
Versions: 1 2 3 4 5 6 7 8 9 10 11 12 13 14 15 16 17 18 19 20 21 22 23 24 25 26 27 28 29 30 31 32 33 34 35 36 37 38 39 40 41 42 43 44 45 46 47 48 49 50
000
FTUS42 KMFL 071134
TAFTMB
TAF
KTMB 071134Z 0712/0812 17003KT P6SM SCT006 SCT020 BKN070
      TEMPO 0712/0714 VRB03KT P6SM SCT006 BKN020
     FM071400 29005KT P6SM VCSH BKN020
     FM072000 20005KT P6SM VCSH SCT035 BKN050
     FM080000 00000KT P6SM SCT030 OVC060
     FM080900 VRB03KT 5SM BR SCT015 BKN035=

USA.gov is the U.S. government's official web portal to all federal, state and local government web resources and services.